Latest Coastal Weather Observations for Port Macquarie Airport

IDN60701

Issued at 11:41 am EDT Friday 15 December 2017 (issued every 10 minutes, with the page automatically refreshed every 10 minutes)

About coastal observations | Map of coastal stations | Coastal observations for NSW | Marine services | Other Formats
Station Details ID: 060139 Name: PORT MACQUARIE AIRPORT AWS Lat: -31.43 Lon: 152.87 Height: 4.2 m
Data from the previous 72 hours. | See also: Recent months at Port Macquarie Airport
Date/Time
EDT
Temp
°C
Wind Pressure Rain since
9am
mm
Weather Cloud Vis
km
Sea
Height
m
Swell
Dir  Spd
kts
Gust
kts
hPa Trend Height
m
Period
s
Dir
15/11:30am 26.4 ENE 17 22 1011.6 - 0.0 - Clear 10 - - - -
15/11:00am 27.8 E 12 16 1011.3 - 0.0 - - 10 - - - -
15/10:30am 29.0 NNE 5 8 1011.1 - 0.0 - - 10 - - - -
15/10:00am 28.6 NNW 7 10 1011.1 - 0.0 - - 10 - - - -
15/09:30am 27.1 NNW 8 11 1011.4 - 0.0 - - 10 - - - -
15/09:00am 25.9 NNW 7 10 1011.4 - 0.0 - - 10 - - - -
15/08:30am 24.2 N 6 8 1011.6 - 0.0 - - 10 - - - -
15/08:00am 22.9 N 8 11 1011.8 - 0.0 - - 10 - - - -
15/07:30am 22.1 N 6 8 1011.6 - 0.0 - - 10 - - - -
15/07:00am 21.0 N 6 8 1011.5 - 0.0 - - 10 - - - -
15/06:30am 20.3 N 7 9 1011.1 - 0.0 - - 10 - - - -
15/06:00am 19.7 N 6 7 1010.6 - 0.0 - - 10 - - - -
15/05:30am 19.9 N 6 8 1010.5 - 0.0 - - 10 - - - -
15/05:00am 20.0 NNW 6 8 1010.2 - 0.0 - - 10 - - - -
15/04:30am 20.6 N 7 9 1009.9 - 0.0 - - 10 - - - -
15/04:00am 20.9 N 7 8 1009.8 - 0.0 - - 10 - - - -
15/03:30am 21.2 N 7 9 1010.0 - 0.0 - - 10 - - - -
15/03:00am 21.3 N 8 10 1010.1 - 0.0 - - 10 - - - -
15/02:30am 21.6 N 9 11 1010.4 - 0.0 - - 10 - - - -
15/02:00am 21.8 N 9 12 1010.6 - 0.0 - - 10 - - - -
15/01:30am 21.5 N 5 8 1010.9 - 0.0 - - 10 - - - -
15/01:00am 21.9 N 7 11 1011.2 - 0.0 - - 10 - - - -
15/12:30am 22.0 N 7 10 1011.3 - 0.0 - - 10 - - - -
15/12:00am 22.0 N 7 10 1011.5 - 0.0 - - 10 - - - -
 
Date/Time
EDT
Temp
°C
Wind Pressure Rain since
9am
mm
Weather Cloud Vis
km
Sea
Height
m
Swell
Dir  Spd
kts
Gust
kts
hPa Trend Height
m
Period
s
Dir
14/11:30pm 22.1 N 6 9 1011.6 - 0.0 - - 10 - - - -
14/11:00pm 22.6 NNE 7 10 1011.6 - 0.0 - - 10 - - - -
14/10:30pm 22.9 NNE 8 12 1011.4 - 0.0 - - 9 - - - -
14/10:00pm 23.1 NNE 9 13 1011.2 - 0.0 - - 10 - - - -
14/09:30pm 23.3 NNE 11 16 1011.0 - 0.0 - - 9 - - - -
14/09:00pm 23.4 NNE 14 19 1010.6 - 0.0 - - 8 - - - -
14/08:30pm 23.8 NNE 14 21 1010.4 - 0.0 - - 10 - - - -
14/08:00pm 24.0 NNE 14 21 1010.0 - 0.0 - - 10 - - - -
14/07:30pm 24.4 NE 13 18 1009.6 - 0.0 - - 10 - - - -
14/07:00pm 25.0 NE 11 15 1009.0 - 0.0 - - 10 - - - -
14/06:30pm 26.4 ENE 11 14 1008.6 - 0.0 - - 10 - - - -
14/06:00pm 27.6 NNE 11 15 1008.0 - 0.0 - - 10 - - - -
14/05:30pm 28.4 NE 10 15 1008.0 - 0.0 - - 10 - - - -
14/05:00pm 29.4 NE 11 15 1007.8 - 0.0 - - 10 - - - -
14/04:30pm 29.2 NNE 12 17 1007.7 - 0.0 - - 10 - - - -
14/04:00pm 29.3 NE 12 16 1008.0 - 0.0 - - 10 - - - -
14/03:30pm 29.7 NE 11 15 1008.2 - 0.0 - - 10 - - - -
14/03:00pm 28.7 NE 13 18 1008.3 - 0.0 - - 10 - - - -
14/02:30pm 30.0 NE 11 14 1008.7 - 0.0 - - 10 - - - -
14/02:00pm 29.0 NE 12 18 1009.1 - 0.0 - - 10 - - - -
14/01:30pm 28.9 NE 13 18 1009.5 - 0.0 - - 10 - - - -
14/01:00pm 28.7 ENE 13 18 1009.8 - 0.0 - - 10 - - - -
14/12:30pm 28.9 ENE 12 16 1010.0 - 0.0 - - 10 - - - -
14/12:00pm 28.0 ENE 13 18 1010.2 - 0.0 - - 10 - - - -
14/11:30am 27.9 ENE 14 18 1010.4 - 0.0 - - 10 - - - -
14/11:00am 27.9 ENE 13 16 1010.6 - 0.0 - - 10 - - - -
14/10:30am 26.9 ENE 13 16 1010.9 - 0.0 - - 10 - - - -
14/10:00am 27.1 ENE 8 11 1011.3 - 0.0 - - 10 - - - -
14/09:30am 26.9 N 8 12 1011.4 - 0.0 - - 10 - - - -
14/09:00am 25.2 N 7 11 1011.7 - 0.0 - - 10 - - - -
14/08:30am 24.4 N 8 11 1011.8 - 0.0 - - 10 - - - -
14/08:00am 23.1 N 12 16 1011.8 - 0.0 - - 10 - - - -
14/07:30am 21.2 N 9 11 1012.0 - 0.0 - - 10 - - - -
14/07:00am 20.2 N 5 8 1012.1 - 0.0 - - 10 - - - -
14/06:30am 19.3 N 2 5 1012.0 - 0.0 - - 10 - - - -
14/06:00am 18.7 N 5 7 1011.8 - 0.0 - Mostly clear 10 - - - -
14/05:30am 18.6 N 6 7 1011.7 - 0.0 - Partly cloudy 10 - - - -
14/05:00am 18.8 N 5 7 1011.7 - 0.0 - - 10 - - - -
14/04:30am 19.5 NNE 7 8 1011.5 - 0.0 - - 7 - - - -
14/04:00am 19.4 NNE 6 8 1011.6 - 0.0 - Partly cloudy 10 - - - -
14/03:30am 19.3 N 6 8 1011.7 - 0.0 - Partly cloudy 9 - - - -
14/03:00am 19.4 N 5 6 1011.8 - 0.0 - Mostly clear 10 - - - -
14/02:30am 19.5 N 4 5 1012.1 - 0.0 - - 10 - - - -
14/02:00am 19.7 N 6 7 1012.2 - 0.0 - - 10 - - - -
14/01:30am 19.8 N 5 7 1012.6 - 0.0 - - 7 - - - -
14/01:00am 19.7 N 5 6 1013.0 - 0.0 - - 8 - - - -
14/12:48am 19.8 N 6 7 1013.3 - 0.0 - - 7 - - - -
14/12:30am 19.8 N 5 7 1013.6 - 0.0 - - 5 - - - -
14/12:28am 19.8 N 5 7 1013.6 - 0.0 - - 5 - - - -
14/12:00am 19.9 N 6 7 1013.8 - 0.0 - - 10 - - - -
 
Date/Time
EDT
Temp
°C
Wind Pressure Rain since
9am
mm
Weather Cloud Vis
km
Sea
Height
m
Swell
Dir  Spd
kts
Gust
kts
hPa Trend Height
m
Period
s
Dir
13/11:30pm 20.3 N 7 8 1014.0 - 0.0 - - 10 - - - -
13/11:00pm 20.4 N 6 7 1014.2 - 0.0 - - 10 - - - -
13/10:30pm 20.7 N 5 7 1014.5 - 0.0 - - 10 - - - -
13/10:00pm 21.4 N 8 12 1014.5 - 0.0 - - 10 - - - -
13/09:30pm 21.8 N 10 13 1014.3 - 0.0 - - 10 - - - -
13/09:00pm 22.2 NNE 9 11 1014.2 - 0.0 - - 10 - - - -
13/08:30pm 22.5 NNE 11 14 1014.2 - 0.0 - - 10 - - - -
13/08:00pm 22.9 NNE 14 20 1014.0 - 0.0 - - 10 - - - -
13/07:30pm 23.4 NNE 14 19 1014.0 - 0.0 - - 10 - - - -
13/07:00pm 23.9 NNE 15 20 1013.7 - 0.0 - - 10 - - - -
13/06:30pm 24.3 NE 13 19 1013.4 - 0.0 - - 10 - - - -
13/06:00pm 24.7 NE 14 21 1013.1 - 0.0 - - 10 - - - -
13/05:30pm 25.7 NE 14 19 1012.9 - 0.0 - - 10 - - - -
13/05:00pm 26.1 NE 12 19 1013.0 - 0.0 - - 10 - - - -
13/04:30pm 25.4 NE 15 20 1013.1 - 0.0 - - 10 - - - -
13/04:00pm 26.1 NE 16 21 1013.3 - 0.0 - - 10 - - - -
13/03:30pm 26.4 NE 15 20 1013.3 - 0.0 - - 10 - - - -
13/03:00pm 26.2 NE 15 21 1013.5 - 0.0 - - 10 - - - -
13/02:30pm 27.4 NE 14 20 1013.6 - 0.0 - - 10 - - - -
13/02:00pm 27.0 NE 15 22 1013.9 - 0.0 - - 10 - - - -
13/01:30pm 26.3 NE 15 20 1014.1 - 0.0 - - 10 - - - -
13/01:00pm 26.7 ENE 16 20 1014.5 - 0.0 - - 10 - - - -
13/12:30pm 26.6 NE 14 21 1014.8 - 0.0 - - 10 - - - -
13/12:00pm 27.0 NE 13 20 1015.1 - 0.0 - Mostly clear 10 - - - -
13/11:30am 26.3 ENE 14 18 1015.4 - 0.0 - - 10 - - - -
13/11:00am 26.2 ENE 12 17 1015.4 - 0.0 - - 10 - - - -
13/10:30am 26.2 NNE 8 13 1015.5 - 0.0 - - 10 - - - -
13/10:00am 26.9 N 9 13 1015.4 - 0.0 - - 10 - - - -
13/09:30am 25.3 N 10 14 1015.6 - 0.0 - - 10 - - - -
13/09:00am 24.5 N 11 15 1015.8 - 0.0 - - 10 - - - -
13/08:30am 23.7 N 12 15 1015.9 - 0.0 - - 10 - - - -
13/08:00am 22.5 N 8 11 1016.1 - 0.0 - - 10 - - - -
13/07:30am 20.2 NNW 4 6 1015.9 - 0.0 - - 10 - - - -
13/07:00am 18.2 NW 4 5 1015.7 - 0.0 - - 10 - - - -
13/06:30am 17.3 NNW 3 4 1015.4 - 0.0 - - 10 - - - -
13/06:12am 15.8 CALM 0 0 1015.4 - 0.0 - - 10 - - - -
13/06:00am 15.5 CALM 0 0 1015.3 - 0.0 - - 2 - - - -
13/05:45am 15.2 CALM 0 0 1015.3 - 0.0 - - 4 - - - -
13/05:30am 15.5 CALM 0 2 1015.2 - 0.0 - - 10 - - - -
13/05:00am 16.4 N 3 4 1015.0 - 0.0 - - 7 - - - -
13/04:30am 16.7 NNW 4 5 1014.9 - 0.0 - - 7 - - - -
13/04:00am 17.8 N 6 7 1015.0 - 0.0 - - 8 - - - -
13/03:30am 17.8 N 5 6 1015.2 - 0.0 - - 6 - - - -
13/03:00am 17.7 N 4 5 1015.4 - 0.0 - - 9 - - - -
13/02:30am 18.0 N 5 6 1015.6 - 0.0 - - 10 - - - -
13/02:00am 18.2 N 5 6 1015.8 - 0.0 - - 8 - - - -
13/01:30am 18.5 N 6 7 1016.1 - 0.0 - - 7 - - - -
13/01:00am 18.5 N 5 6 1016.5 - 0.0 - - 7 - - - -
13/12:30am 18.7 N 4 6 1016.8 - 0.0 - - 6 - - - -
13/12:00am 19.0 N 5 6 1017.2 - 0.0 - - 7 - - - -
 
Date/Time
EDT
Temp
°C
Wind Pressure Rain since
9am
mm
Weather Cloud Vis
km
Sea
Height
m
Swell
Dir  Spd
kts
Gust
kts
hPa Trend Height
m
Period
s
Dir
12/11:30pm 19.0 N 4 5 1017.6 - 0.0 - - 7 - - - -
12/11:00pm 19.5 N 4 5 1017.9 - 0.0 - - 7 - - - -
12/10:30pm 19.8 N 6 7 1017.9 - 0.0 - - 9 - - - -
12/10:00pm 20.1 N 5 6 1018.0 - 0.0 - - 10 - - - -
12/09:30pm 20.8 NNE 6 7 1017.9 - 0.0 - - 10 - - - -
12/09:00pm 21.3 N 7 9 1017.8 - 0.0 - - 10 - - - -
12/08:30pm 21.9 NNE 7 9 1017.7 - 0.0 - - 10 - - - -
12/08:00pm 22.4 NNE 8 10 1017.5 - 0.0 - - 10 - - - -
12/07:30pm 22.8 NE 8 12 1017.4 - 0.0 - - 10 - - - -
12/07:00pm 23.3 NE 9 13 1017.3 - 0.0 - - 10 - - - -
12/06:30pm 24.0 NE 11 14 1017.0 - 0.0 - - 10 - - - -
12/06:00pm 24.3 NE 10 14 1016.8 - 0.0 - - 10 - - - -
12/05:30pm 24.6 NE 11 16 1016.7 - 0.0 - - 10 - - - -
12/05:00pm 24.5 NE 12 16 1016.7 - 0.0 - - 10 - - - -
12/04:30pm 25.2 NE 11 16 1016.8 - 0.0 - - 10 - - - -
12/04:00pm 25.5 ENE 12 16 1016.8 - 0.0 - - 10 - - - -
12/03:30pm 25.7 E 13 18 1017.0 - 0.0 - - 10 - - - -
12/03:00pm 25.3 ENE 13 17 1017.2 - 0.0 - - 10 - - - -
12/02:30pm 25.6 ENE 13 16 1017.3 - 0.0 - - 10 - - - -
12/02:00pm 26.0 ENE 12 17 1017.5 - 0.0 - - 10 - - - -
12/01:30pm 25.9 ENE 11 15 1017.7 - 0.0 - - 10 - - - -
12/01:00pm 25.0 ENE 13 16 1018.1 - 0.0 - - 10 - - - -
12/12:30pm 25.4 ENE 13 15 1018.4 - 0.0 - - 10 - - - -
12/12:00pm 25.8 ENE 12 15 1018.6 - 0.0 - - 10 - - - -

Other Formats:

Comma delimited format used in spreadsheet applications
http://www.bom.gov.au/fwo/IDN60701/IDN60701.94786.axf

JavaScript Object Notation format (JSON) in row-major order
http://www.bom.gov.au/fwo/IDN60701/IDN60701.94786.json